sensor_id;sensor_type;location;lat;lon;timestamp;P1;durP1;ratioP1;P2;durP2;ratioP2
70457;SDS011;57919;56.194;95.716;2024-02-04T00:07:53;4.05;;;1.88;;
70457;SDS011;57919;56.194;95.716;2024-02-04T00:17:55;12.60;;;11.20;;
70457;SDS011;57919;56.194;95.716;2024-02-04T00:27:57;8.87;;;5.50;;
70457;SDS011;57919;56.194;95.716;2024-02-04T00:37:59;14.95;;;9.80;;
70457;SDS011;57919;56.194;95.716;2024-02-04T00:48:04;23.35;;;20.05;;
70457;SDS011;57919;56.194;95.716;2024-02-04T00:58:06;32.53;;;19.60;;
70457;SDS011;57919;56.194;95.716;2024-02-04T01:08:08;3.77;;;3.47;;
70457;SDS011;57919;56.194;95.716;2024-02-04T01:18:10;22.83;;;16.35;;
70457;SDS011;57919;56.194;95.716;2024-02-04T01:28:12;45.37;;;25.83;;
70457;SDS011;57919;56.194;95.716;2024-02-04T01:38:14;43.73;;;28.07;;
70457;SDS011;57919;56.194;95.716;2024-02-04T01:48:16;32.20;;;21.05;;
70457;SDS011;57919;56.194;95.716;2024-02-04T01:58:19;36.67;;;27.77;;
70457;SDS011;57919;56.194;95.716;2024-02-04T02:08:21;46.03;;;32.50;;
70457;SDS011;57919;56.194;95.716;2024-02-04T02:18:29;33.00;;;23.73;;
70457;SDS011;57919;56.194;95.716;2024-02-04T02:28:37;32.05;;;23.42;;
70457;SDS011;57919;56.194;95.716;2024-02-04T02:39:24;30.10;;;21.90;;
70457;SDS011;57919;56.194;95.716;2024-02-04T02:49:13;93.10;;;55.80;;
70457;SDS011;57919;56.194;95.716;2024-02-04T02:59:15;29.48;;;22.58;;
70457;SDS011;57919;56.194;95.716;2024-02-04T03:09:19;11.17;;;7.83;;
70457;SDS011;57919;56.194;95.716;2024-02-04T03:19:21;41.17;;;16.83;;
70457;SDS011;57919;56.194;95.716;2024-02-04T03:29:23;15.45;;;9.98;;
70457;SDS011;57919;56.194;95.716;2024-02-04T03:39:25;18.90;;;13.23;;
70457;SDS011;57919;56.194;95.716;2024-02-04T03:49:28;64.40;;;20.90;;
70457;SDS011;57919;56.194;95.716;2024-02-04T03:59:30;25.60;;;12.40;;
70457;SDS011;57919;56.194;95.716;2024-02-04T04:09:32;47.65;;;15.45;;
70457;SDS011;57919;56.194;95.716;2024-02-04T04:19:33;18.70;;;10.53;;
70457;SDS011;57919;56.194;95.716;2024-02-04T04:29:36;14.13;;;10.03;;
70457;SDS011;57919;56.194;95.716;2024-02-04T04:39:39;25.85;;;14.98;;
70457;SDS011;57919;56.194;95.716;2024-02-04T04:49:41;47.00;;;28.70;;
70457;SDS011;57919;56.194;95.716;2024-02-04T04:59:43;22.83;;;17.60;;
70457;SDS011;57919;56.194;95.716;2024-02-04T05:09:45;72.22;;;39.80;;
70457;SDS011;57919;56.194;95.716;2024-02-04T05:19:47;111.87;;;55.97;;
70457;SDS011;57919;56.194;95.716;2024-02-04T05:29:49;76.43;;;47.80;;
70457;SDS011;57919;56.194;95.716;2024-02-04T05:39:51;93.78;;;52.70;;
70457;SDS011;57919;56.194;95.716;2024-02-04T05:49:53;40.72;;;22.00;;
70457;SDS011;57919;56.194;95.716;2024-02-04T05:59:55;47.90;;;22.07;;
70457;SDS011;57919;56.194;95.716;2024-02-04T06:09:57;77.77;;;32.23;;
70457;SDS011;57919;56.194;95.716;2024-02-04T06:20:01;59.70;;;37.05;;
70457;SDS011;57919;56.194;95.716;2024-02-04T06:30:05;48.20;;;25.70;;
70457;SDS011;57919;56.194;95.716;2024-02-04T06:40:07;69.20;;;28.50;;
70457;SDS011;57919;56.194;95.716;2024-02-04T06:50:10;62.38;;;28.60;;
70457;SDS011;57919;56.194;95.716;2024-02-04T07:00:15;31.43;;;14.27;;
70457;SDS011;57919;56.194;95.716;2024-02-04T07:10:17;45.93;;;21.17;;
70457;SDS011;57919;56.194;95.716;2024-02-04T07:20:20;46.60;;;26.88;;
70457;SDS011;57919;56.194;95.716;2024-02-04T07:30:23;37.67;;;18.73;;
70457;SDS011;57919;56.194;95.716;2024-02-04T07:40:24;37.00;;;19.70;;
70457;SDS011;57919;56.194;95.716;2024-02-04T07:50:28;34.37;;;18.60;;
70457;SDS011;57919;56.194;95.716;2024-02-04T08:00:30;61.60;;;28.48;;
70457;SDS011;57919;56.194;95.716;2024-02-04T08:10:31;43.73;;;18.80;;
70457;SDS011;57919;56.194;95.716;2024-02-04T08:20:33;46.73;;;23.20;;
70457;SDS011;57919;56.194;95.716;2024-02-04T08:30:35;77.20;;;26.75;;
70457;SDS011;57919;56.194;95.716;2024-02-04T08:40:37;82.33;;;36.67;;
70457;SDS011;57919;56.194;95.716;2024-02-04T08:50:39;40.80;;;19.20;;
70457;SDS011;57919;56.194;95.716;2024-02-04T09:00:41;96.97;;;41.33;;
70457;SDS011;57919;56.194;95.716;2024-02-04T09:10:43;78.43;;;34.05;;
70457;SDS011;57919;56.194;95.716;2024-02-04T09:20:45;55.90;;;32.33;;
70457;SDS011;57919;56.194;95.716;2024-02-04T09:30:48;73.50;;;35.73;;
70457;SDS011;57919;56.194;95.716;2024-02-04T09:40:50;46.78;;;24.90;;
70457;SDS011;57919;56.194;95.716;2024-02-04T09:50:52;38.27;;;23.37;;
70457;SDS011;57919;56.194;95.716;2024-02-04T10:00:54;41.53;;;21.97;;
70457;SDS011;57919;56.194;95.716;2024-02-04T10:10:57;45.47;;;22.50;;
70457;SDS011;57919;56.194;95.716;2024-02-04T10:21:01;67.37;;;35.93;;
70457;SDS011;57919;56.194;95.716;2024-02-04T10:31:03;55.40;;;23.77;;
70457;SDS011;57919;56.194;95.716;2024-02-04T10:41:05;29.58;;;20.02;;
70457;SDS011;57919;56.194;95.716;2024-02-04T10:51:10;9.60;;;5.50;;
70457;SDS011;57919;56.194;95.716;2024-02-04T11:01:14;67.50;;;25.30;;
70457;SDS011;57919;56.194;95.716;2024-02-04T11:11:17;45.00;;;25.80;;
70457;SDS011;57919;56.194;95.716;2024-02-04T11:21:33;33.78;;;20.63;;
70457;SDS011;57919;56.194;95.716;2024-02-04T11:31:39;44.00;;;18.90;;
70457;SDS011;57919;56.194;95.716;2024-02-04T11:41:44;84.23;;;30.17;;
70457;SDS011;57919;56.194;95.716;2024-02-04T11:51:50;122.50;;;57.95;;
70457;SDS011;57919;56.194;95.716;2024-02-04T12:01:53;70.60;;;38.07;;
70457;SDS011;57919;56.194;95.716;2024-02-04T12:11:59;115.43;;;60.80;;
70457;SDS011;57919;56.194;95.716;2024-02-04T12:22:02;62.28;;;38.50;;
70457;SDS011;57919;56.194;95.716;2024-02-04T12:32:13;80.30;;;41.78;;
70457;SDS011;57919;56.194;95.716;2024-02-04T12:42:15;62.33;;;35.63;;
70457;SDS011;57919;56.194;95.716;2024-02-04T12:52:21;39.30;;;29.23;;
70457;SDS011;57919;56.194;95.716;2024-02-04T13:02:23;66.90;;;43.15;;
70457;SDS011;57919;56.194;95.716;2024-02-04T13:12:25;63.77;;;35.10;;
70457;SDS011;57919;56.194;95.716;2024-02-04T13:22:27;24.47;;;18.93;;
70457;SDS011;57919;56.194;95.716;2024-02-04T13:32:28;27.38;;;16.15;;
70457;SDS011;57919;56.194;95.716;2024-02-04T13:42:34;41.97;;;22.17;;
70457;SDS011;57919;56.194;95.716;2024-02-04T13:52:37;36.50;;;22.17;;
70457;SDS011;57919;56.194;95.716;2024-02-04T14:02:39;45.60;;;29.48;;
70457;SDS011;57919;56.194;95.716;2024-02-04T14:12:41;59.00;;;34.03;;
70457;SDS011;57919;56.194;95.716;2024-02-04T14:22:46;135.63;;;78.53;;
70457;SDS011;57919;56.194;95.716;2024-02-04T14:32:48;131.57;;;70.60;;
70457;SDS011;57919;56.194;95.716;2024-02-04T14:42:50;104.22;;;49.83;;
70457;SDS011;57919;56.194;95.716;2024-02-04T14:52:52;127.70;;;64.33;;
70457;SDS011;57919;56.194;95.716;2024-02-04T15:02:55;136.27;;;70.40;;
70457;SDS011;57919;56.194;95.716;2024-02-04T15:12:57;128.90;;;77.45;;
70457;SDS011;57919;56.194;95.716;2024-02-04T15:22:59;124.07;;;71.17;;
70457;SDS011;57919;56.194;95.716;2024-02-04T15:33:02;96.67;;;51.47;;
70457;SDS011;57919;56.194;95.716;2024-02-04T15:43:05;76.43;;;44.60;;
70457;SDS011;57919;56.194;95.716;2024-02-04T15:53:07;41.33;;;17.33;;
70457;SDS011;57919;56.194;95.716;2024-02-04T16:03:10;101.63;;;34.70;;
70457;SDS011;57919;56.194;95.716;2024-02-04T16:13:12;28.87;;;17.37;;
70457;SDS011;57919;56.194;95.716;2024-02-04T16:23:14;14.10;;;8.75;;
70457;SDS011;57919;56.194;95.716;2024-02-04T16:33:19;36.67;;;11.83;;
70457;SDS011;57919;56.194;95.716;2024-02-04T16:43:23;12.77;;;6.30;;
70457;SDS011;57919;56.194;95.716;2024-02-04T16:53:24;25.02;;;6.78;;
70457;SDS011;57919;56.194;95.716;2024-02-04T17:03:27;28.93;;;13.13;;
70457;SDS011;57919;56.194;95.716;2024-02-04T17:13:29;17.03;;;7.37;;
70457;SDS011;57919;56.194;95.716;2024-02-04T17:23:31;75.95;;;33.13;;
70457;SDS011;57919;56.194;95.716;2024-02-04T17:33:39;38.85;;;13.60;;
70457;SDS011;57919;56.194;95.716;2024-02-04T17:43:41;44.87;;;15.63;;
70457;SDS011;57919;56.194;95.716;2024-02-04T17:53:43;36.43;;;13.40;;
70457;SDS011;57919;56.194;95.716;2024-02-04T18:03:45;22.13;;;8.75;;
70457;SDS011;57919;56.194;95.716;2024-02-04T18:13:47;59.90;;;22.23;;
70457;SDS011;57919;56.194;95.716;2024-02-04T18:23:49;26.83;;;10.40;;
70457;SDS011;57919;56.194;95.716;2024-02-04T18:33:54;27.60;;;10.73;;
70457;SDS011;57919;56.194;95.716;2024-02-04T18:43:56;29.50;;;9.77;;
70457;SDS011;57919;56.194;95.716;2024-02-04T18:53:58;10.80;;;3.43;;
70457;SDS011;57919;56.194;95.716;2024-02-04T19:04:01;16.15;;;6.30;;
70457;SDS011;57919;56.194;95.716;2024-02-04T19:14:03;12.90;;;5.00;;
70457;SDS011;57919;56.194;95.716;2024-02-04T19:24:05;10.57;;;4.57;;
70457;SDS011;57919;56.194;95.716;2024-02-04T19:34:09;34.47;;;9.80;;
70457;SDS011;57919;56.194;95.716;2024-02-04T19:44:11;20.75;;;8.13;;
70457;SDS011;57919;56.194;95.716;2024-02-04T19:54:13;13.30;;;4.17;;
70457;SDS011;57919;56.194;95.716;2024-02-04T20:04:15;10.27;;;4.43;;
70457;SDS011;57919;56.194;95.716;2024-02-04T20:14:19;13.48;;;5.50;;
70457;SDS011;57919;56.194;95.716;2024-02-04T20:24:21;10.60;;;3.43;;
70457;SDS011;57919;56.194;95.716;2024-02-04T20:34:23;5.27;;;1.97;;
70457;SDS011;57919;56.194;95.716;2024-02-04T20:44:25;11.13;;;5.20;;
70457;SDS011;57919;56.194;95.716;2024-02-04T20:54:27;17.27;;;4.22;;
70457;SDS011;57919;56.194;95.716;2024-02-04T21:04:30;21.77;;;6.30;;
70457;SDS011;57919;56.194;95.716;2024-02-04T21:14:32;25.97;;;11.23;;
70457;SDS011;57919;56.194;95.716;2024-02-04T21:24:34;28.25;;;9.82;;
70457;SDS011;57919;56.194;95.716;2024-02-04T21:34:36;24.07;;;7.57;;
70457;SDS011;57919;56.194;95.716;2024-02-04T21:44:40;14.00;;;3.03;;
70457;SDS011;57919;56.194;95.716;2024-02-04T21:54:44;8.10;;;2.80;;
70457;SDS011;57919;56.194;95.716;2024-02-04T22:04:46;28.10;;;11.93;;
70457;SDS011;57919;56.194;95.716;2024-02-04T22:14:48;7.47;;;2.63;;
70457;SDS011;57919;56.194;95.716;2024-02-04T22:24:50;13.18;;;5.20;;
70457;SDS011;57919;56.194;95.716;2024-02-04T22:34:51;20.10;;;6.53;;
70457;SDS011;57919;56.194;95.716;2024-02-04T22:44:54;83.40;;;31.07;;
70457;SDS011;57919;56.194;95.716;2024-02-04T22:54:55;47.80;;;23.00;;
70457;SDS011;57919;56.194;95.716;2024-02-04T23:04:57;126.85;;;41.13;;
70457;SDS011;57919;56.194;95.716;2024-02-04T23:14:59;75.70;;;24.43;;
70457;SDS011;57919;56.194;95.716;2024-02-04T23:25:01;226.57;;;60.27;;
70457;SDS011;57919;56.194;95.716;2024-02-04T23:35:04;65.00;;;23.50;;
70457;SDS011;57919;56.194;95.716;2024-02-04T23:45:06;18.23;;;7.57;;
70457;SDS011;57919;56.194;95.716;2024-02-04T23:55:09;90.27;;;30.00;;
